sensor_id;sensor_type;location;lat;lon;timestamp;P1;durP1;ratioP1;P2;durP2;ratioP2
38037;SDS011;23843;51.320;12.340;2023-07-08T00:02:07;1.88;;;1.70;;
38037;SDS011;23843;51.320;12.340;2023-07-08T00:04:34;2.00;;;1.50;;
38037;SDS011;23843;51.320;12.340;2023-07-08T00:07:00;1.90;;;1.42;;
38037;SDS011;23843;51.320;12.340;2023-07-08T00:09:25;2.67;;;1.77;;
38037;SDS011;23843;51.320;12.340;2023-07-08T00:11:51;1.52;;;1.40;;
38037;SDS011;23843;51.320;12.340;2023-07-08T00:14:16;2.17;;;1.98;;
38037;SDS011;23843;51.320;12.340;2023-07-08T00:16:42;1.60;;;1.50;;
38037;SDS011;23843;51.320;12.340;2023-07-08T00:19:08;1.50;;;1.38;;
38037;SDS011;23843;51.320;12.340;2023-07-08T00:21:35;1.95;;;1.25;;
38037;SDS011;23843;51.320;12.340;2023-07-08T00:24:01;1.85;;;1.75;;
38037;SDS011;23843;51.320;12.340;2023-07-08T00:26:27;2.17;;;1.70;;
38037;SDS011;23843;51.320;12.340;2023-07-08T00:28:55;2.65;;;2.00;;
38037;SDS011;23843;51.320;12.340;2023-07-08T00:31:20;1.83;;;1.73;;
38037;SDS011;23843;51.320;12.340;2023-07-08T00:33:47;2.00;;;1.80;;
38037;SDS011;23843;51.320;12.340;2023-07-08T00:36:12;2.20;;;1.90;;
38037;SDS011;23843;51.320;12.340;2023-07-08T00:38:41;1.98;;;1.77;;
38037;SDS011;23843;51.320;12.340;2023-07-08T00:41:08;1.50;;;1.40;;
38037;SDS011;23843;51.320;12.340;2023-07-08T00:43:38;1.83;;;1.40;;
38037;SDS011;23843;51.320;12.340;2023-07-08T00:46:08;1.38;;;1.10;;
38037;SDS011;23843;51.320;12.340;2023-07-08T00:48:42;0.90;;;0.90;;
38037;SDS011;23843;51.320;12.340;2023-07-08T00:51:10;0.70;;;0.70;;
38037;SDS011;23843;51.320;12.340;2023-07-08T00:53:36;1.20;;;1.10;;
38037;SDS011;23843;51.320;12.340;2023-07-08T00:56:04;1.48;;;1.00;;
38037;SDS011;23843;51.320;12.340;2023-07-08T00:58:34;1.55;;;1.40;;
38037;SDS011;23843;51.320;12.340;2023-07-08T01:01:05;0.90;;;0.90;;
38037;SDS011;23843;51.320;12.340;2023-07-08T01:03:31;1.63;;;1.52;;
38037;SDS011;23843;51.320;12.340;2023-07-08T01:06:02;2.08;;;1.50;;
38037;SDS011;23843;51.320;12.340;2023-07-08T01:08:28;2.35;;;1.45;;
38037;SDS011;23843;51.320;12.340;2023-07-08T01:10:55;1.80;;;1.60;;
38037;SDS011;23843;51.320;12.340;2023-07-08T01:13:26;1.25;;;1.10;;
38037;SDS011;23843;51.320;12.340;2023-07-08T01:15:54;1.73;;;1.63;;
38037;SDS011;23843;51.320;12.340;2023-07-08T01:18:19;2.25;;;1.70;;
38037;SDS011;23843;51.320;12.340;2023-07-08T01:20:46;1.63;;;1.50;;
38037;SDS011;23843;51.320;12.340;2023-07-08T01:23:14;2.35;;;1.67;;
38037;SDS011;23843;51.320;12.340;2023-07-08T01:25:41;0.80;;;0.80;;
38037;SDS011;23843;51.320;12.340;2023-07-08T01:28:08;0.80;;;0.80;;
38037;SDS011;23843;51.320;12.340;2023-07-08T01:30:34;0.95;;;0.95;;
38037;SDS011;23843;51.320;12.340;2023-07-08T01:33:02;0.93;;;0.80;;
38037;SDS011;23843;51.320;12.340;2023-07-08T01:35:30;1.33;;;1.23;;
38037;SDS011;23843;51.320;12.340;2023-07-08T01:37:56;0.60;;;0.60;;
38037;SDS011;23843;51.320;12.340;2023-07-08T01:40:27;1.35;;;1.30;;
38037;SDS011;23843;51.320;12.340;2023-07-08T01:42:54;0.50;;;0.50;;
38037;SDS011;23843;51.320;12.340;2023-07-08T01:45:21;0.50;;;0.50;;
38037;SDS011;23843;51.320;12.340;2023-07-08T01:47:50;0.50;;;0.50;;
38037;SDS011;23843;51.320;12.340;2023-07-08T01:50:20;0.40;;;0.40;;
38037;SDS011;23843;51.320;12.340;2023-07-08T01:52:48;0.30;;;0.30;;
38037;SDS011;23843;51.320;12.340;2023-07-08T01:55:20;0.50;;;0.50;;
38037;SDS011;23843;51.320;12.340;2023-07-08T01:57:48;0.40;;;0.40;;
38037;SDS011;23843;51.320;12.340;2023-07-08T02:00:16;0.40;;;0.40;;
38037;SDS011;23843;51.320;12.340;2023-07-08T02:02:42;0.20;;;0.20;;
38037;SDS011;23843;51.320;12.340;2023-07-08T02:05:08;0.40;;;0.40;;
38037;SDS011;23843;51.320;12.340;2023-07-08T02:07:33;0.30;;;0.30;;
38037;SDS011;23843;51.320;12.340;2023-07-08T02:09:59;0.30;;;0.30;;
38037;SDS011;23843;51.320;12.340;2023-07-08T02:12:24;0.43;;;0.35;;
38037;SDS011;23843;51.320;12.340;2023-07-08T02:14:51;0.40;;;0.40;;
38037;SDS011;23843;51.320;12.340;2023-07-08T02:17:16;0.52;;;0.52;;
38037;SDS011;23843;51.320;12.340;2023-07-08T02:19:42;0.45;;;0.45;;
38037;SDS011;23843;51.320;12.340;2023-07-08T02:22:07;0.50;;;0.50;;
38037;SDS011;23843;51.320;12.340;2023-07-08T02:24:33;0.60;;;0.60;;
38037;SDS011;23843;51.320;12.340;2023-07-08T02:26:58;0.40;;;0.40;;
38037;SDS011;23843;51.320;12.340;2023-07-08T02:29:24;0.40;;;0.40;;
38037;SDS011;23843;51.320;12.340;2023-07-08T02:31:51;0.40;;;0.40;;
38037;SDS011;23843;51.320;12.340;2023-07-08T02:34:16;0.43;;;0.43;;
38037;SDS011;23843;51.320;12.340;2023-07-08T02:36:42;0.40;;;0.40;;
38037;SDS011;23843;51.320;12.340;2023-07-08T02:39:07;0.40;;;0.30;;
38037;SDS011;23843;51.320;12.340;2023-07-08T02:41:33;0.50;;;0.50;;
38037;SDS011;23843;51.320;12.340;2023-07-08T02:43:58;0.30;;;0.30;;
38037;SDS011;23843;51.320;12.340;2023-07-08T02:46:24;0.30;;;0.30;;
38037;SDS011;23843;51.320;12.340;2023-07-08T02:48:50;0.40;;;0.40;;
38037;SDS011;23843;51.320;12.340;2023-07-08T02:51:16;0.30;;;0.30;;
38037;SDS011;23843;51.320;12.340;2023-07-08T02:53:42;0.40;;;0.40;;
38037;SDS011;23843;51.320;12.340;2023-07-08T02:56:07;0.90;;;0.90;;
38037;SDS011;23843;51.320;12.340;2023-07-08T02:58:33;0.70;;;0.50;;
38037;SDS011;23843;51.320;12.340;2023-07-08T03:00:58;1.30;;;1.20;;
38037;SDS011;23843;51.320;12.340;2023-07-08T03:03:24;1.10;;;1.00;;
38037;SDS011;23843;51.320;12.340;2023-07-08T03:05:58;1.00;;;0.90;;
38037;SDS011;23843;51.320;12.340;2023-07-08T03:08:24;0.57;;;0.57;;
38037;SDS011;23843;51.320;12.340;2023-07-08T03:10:54;0.80;;;0.70;;
38037;SDS011;23843;51.320;12.340;2023-07-08T03:13:21;0.68;;;0.60;;
38037;SDS011;23843;51.320;12.340;2023-07-08T03:15:47;0.68;;;0.68;;
38037;SDS011;23843;51.320;12.340;2023-07-08T03:18:12;0.95;;;0.77;;
38037;SDS011;23843;51.320;12.340;2023-07-08T03:20:39;0.50;;;0.50;;
38037;SDS011;23843;51.320;12.340;2023-07-08T03:23:06;0.52;;;0.52;;
38037;SDS011;23843;51.320;12.340;2023-07-08T03:25:31;0.40;;;0.40;;
38037;SDS011;23843;51.320;12.340;2023-07-08T03:27:57;0.50;;;0.50;;
38037;SDS011;23843;51.320;12.340;2023-07-08T03:30:22;0.45;;;0.45;;
38037;SDS011;23843;51.320;12.340;2023-07-08T03:32:48;0.50;;;0.50;;
38037;SDS011;23843;51.320;12.340;2023-07-08T03:35:14;1.02;;;1.02;;
38037;SDS011;23843;51.320;12.340;2023-07-08T03:37:40;0.40;;;0.40;;
38037;SDS011;23843;51.320;12.340;2023-07-08T03:40:09;0.73;;;0.55;;
38037;SDS011;23843;51.320;12.340;2023-07-08T03:42:36;0.75;;;0.70;;
38037;SDS011;23843;51.320;12.340;2023-07-08T03:45:01;0.55;;;0.55;;
38037;SDS011;23843;51.320;12.340;2023-07-08T03:47:28;0.60;;;0.60;;
38037;SDS011;23843;51.320;12.340;2023-07-08T03:49:54;0.60;;;0.60;;
38037;SDS011;23843;51.320;12.340;2023-07-08T03:52:20;0.40;;;0.40;;
38037;SDS011;23843;51.320;12.340;2023-07-08T03:54:45;0.50;;;0.50;;
38037;SDS011;23843;51.320;12.340;2023-07-08T03:57:12;0.50;;;0.50;;
38037;SDS011;23843;51.320;12.340;2023-07-08T03:59:38;0.60;;;0.60;;
38037;SDS011;23843;51.320;12.340;2023-07-08T04:02:03;0.55;;;0.50;;
38037;SDS011;23843;51.320;12.340;2023-07-08T04:04:29;0.55;;;0.50;;
38037;SDS011;23843;51.320;12.340;2023-07-08T04:06:54;0.75;;;0.65;;
38037;SDS011;23843;51.320;12.340;2023-07-08T04:09:20;1.05;;;0.95;;
38037;SDS011;23843;51.320;12.340;2023-07-08T04:11:46;0.95;;;0.88;;
38037;SDS011;23843;51.320;12.340;2023-07-08T04:14:14;0.88;;;0.88;;
38037;SDS011;23843;51.320;12.340;2023-07-08T04:16:44;0.85;;;0.70;;
38037;SDS011;23843;51.320;12.340;2023-07-08T04:19:13;0.90;;;0.80;;
38037;SDS011;23843;51.320;12.340;2023-07-08T04:21:39;0.60;;;0.60;;
38037;SDS011;23843;51.320;12.340;2023-07-08T04:24:05;1.50;;;1.40;;
38037;SDS011;23843;51.320;12.340;2023-07-08T04:26:33;0.60;;;0.60;;
38037;SDS011;23843;51.320;12.340;2023-07-08T04:28:58;1.23;;;0.50;;
38037;SDS011;23843;51.320;12.340;2023-07-08T04:31:28;1.52;;;1.40;;
38037;SDS011;23843;51.320;12.340;2023-07-08T04:33:54;1.95;;;1.65;;
38037;SDS011;23843;51.320;12.340;2023-07-08T04:36:19;0.90;;;0.90;;
38037;SDS011;23843;51.320;12.340;2023-07-08T04:38:45;1.45;;;1.35;;
38037;SDS011;23843;51.320;12.340;2023-07-08T04:41:10;2.00;;;1.60;;
38037;SDS011;23843;51.320;12.340;2023-07-08T04:43:36;1.50;;;1.40;;
38037;SDS011;23843;51.320;12.340;2023-07-08T04:46:01;3.88;;;2.25;;
38037;SDS011;23843;51.320;12.340;2023-07-08T04:48:28;2.13;;;1.92;;
38037;SDS011;23843;51.320;12.340;2023-07-08T04:50:54;2.00;;;1.80;;
38037;SDS011;23843;51.320;12.340;2023-07-08T04:53:20;1.70;;;1.60;;
38037;SDS011;23843;51.320;12.340;2023-07-08T04:55:46;1.70;;;1.60;;
38037;SDS011;23843;51.320;12.340;2023-07-08T04:58:15;2.85;;;2.53;;
38037;SDS011;23843;51.320;12.340;2023-07-08T05:00:41;2.92;;;2.55;;
38037;SDS011;23843;51.320;12.340;2023-07-08T05:03:09;3.10;;;2.65;;
38037;SDS011;23843;51.320;12.340;2023-07-08T05:05:39;2.42;;;2.22;;
38037;SDS011;23843;51.320;12.340;2023-07-08T05:08:05;2.63;;;2.42;;
38037;SDS011;23843;51.320;12.340;2023-07-08T05:10:32;2.58;;;2.38;;
38037;SDS011;23843;51.320;12.340;2023-07-08T05:12:57;2.88;;;2.40;;
38037;SDS011;23843;51.320;12.340;2023-07-08T05:15:23;2.65;;;2.22;;
38037;SDS011;23843;51.320;12.340;2023-07-08T05:17:51;2.30;;;2.10;;
38037;SDS011;23843;51.320;12.340;2023-07-08T05:20:16;4.28;;;2.47;;
38037;SDS011;23843;51.320;12.340;2023-07-08T05:22:44;2.70;;;2.47;;
38037;SDS011;23843;51.320;12.340;2023-07-08T05:25:12;1.60;;;1.50;;
38037;SDS011;23843;51.320;12.340;2023-07-08T05:27:38;2.13;;;2.03;;
38037;SDS011;23843;51.320;12.340;2023-07-08T05:30:04;1.50;;;1.40;;
38037;SDS011;23843;51.320;12.340;2023-07-08T05:32:35;1.30;;;1.20;;
38037;SDS011;23843;51.320;12.340;2023-07-08T05:35:01;2.53;;;2.05;;
38037;SDS011;23843;51.320;12.340;2023-07-08T05:37:27;2.58;;;2.38;;
38037;SDS011;23843;51.320;12.340;2023-07-08T05:39:54;4.60;;;2.78;;
38037;SDS011;23843;51.320;12.340;2023-07-08T05:42:23;2.05;;;1.90;;
38037;SDS011;23843;51.320;12.340;2023-07-08T05:44:50;1.88;;;1.77;;
38037;SDS011;23843;51.320;12.340;2023-07-08T05:47:16;2.15;;;1.95;;
38037;SDS011;23843;51.320;12.340;2023-07-08T05:49:42;2.95;;;2.10;;
38037;SDS011;23843;51.320;12.340;2023-07-08T05:52:08;2.80;;;2.50;;
38037;SDS011;23843;51.320;12.340;2023-07-08T05:54:33;2.38;;;2.13;;
38037;SDS011;23843;51.320;12.340;2023-07-08T05:57:01;2.30;;;2.10;;
38037;SDS011;23843;51.320;12.340;2023-07-08T05:59:26;2.00;;;1.90;;
38037;SDS011;23843;51.320;12.340;2023-07-08T06:01:52;2.83;;;2.30;;
38037;SDS011;23843;51.320;12.340;2023-07-08T06:04:17;2.50;;;2.30;;
38037;SDS011;23843;51.320;12.340;2023-07-08T06:06:43;3.05;;;2.03;;
38037;SDS011;23843;51.320;12.340;2023-07-08T06:09:08;1.90;;;1.67;;
38037;SDS011;23843;51.320;12.340;2023-07-08T06:11:33;1.75;;;1.65;;
38037;SDS011;23843;51.320;12.340;2023-07-08T06:14:00;1.63;;;1.52;;
38037;SDS011;23843;51.320;12.340;2023-07-08T06:16:27;2.85;;;2.53;;
38037;SDS011;23843;51.320;12.340;2023-07-08T06:18:53;2.38;;;2.17;;
38037;SDS011;23843;51.320;12.340;2023-07-08T06:21:19;2.50;;;2.30;;
38037;SDS011;23843;51.320;12.340;2023-07-08T06:23:47;3.35;;;2.80;;
38037;SDS011;23843;51.320;12.340;2023-07-08T06:26:13;2.60;;;2.40;;
38037;SDS011;23843;51.320;12.340;2023-07-08T06:28:38;2.50;;;2.30;;
38037;SDS011;23843;51.320;12.340;2023-07-08T06:31:05;2.63;;;2.25;;
38037;SDS011;23843;51.320;12.340;2023-07-08T06:33:30;2.13;;;1.98;;
38037;SDS011;23843;51.320;12.340;2023-07-08T06:35:56;2.65;;;2.45;;
38037;SDS011;23843;51.320;12.340;2023-07-08T06:38:21;2.47;;;2.28;;
38037;SDS011;23843;51.320;12.340;2023-07-08T06:40:47;2.47;;;2.30;;
38037;SDS011;23843;51.320;12.340;2023-07-08T06:43:15;2.15;;;2.05;;
38037;SDS011;23843;51.320;12.340;2023-07-08T06:45:41;2.20;;;2.10;;
38037;SDS011;23843;51.320;12.340;2023-07-08T06:48:09;2.38;;;2.20;;
38037;SDS011;23843;51.320;12.340;2023-07-08T06:50:38;2.20;;;2.10;;
38037;SDS011;23843;51.320;12.340;2023-07-08T06:53:03;2.10;;;2.00;;
38037;SDS011;23843;51.320;12.340;2023-07-08T06:55:29;2.80;;;2.60;;
38037;SDS011;23843;51.320;12.340;2023-07-08T06:57:54;2.65;;;2.50;;
38037;SDS011;23843;51.320;12.340;2023-07-08T07:00:20;2.50;;;2.40;;
38037;SDS011;23843;51.320;12.340;2023-07-08T07:02:46;2.83;;;2.63;;
38037;SDS011;23843;51.320;12.340;2023-07-08T07:05:13;3.13;;;2.92;;
38037;SDS011;23843;51.320;12.340;2023-07-08T07:07:38;2.80;;;2.60;;
38037;SDS011;23843;51.320;12.340;2023-07-08T07:10:04;2.80;;;2.60;;
38037;SDS011;23843;51.320;12.340;2023-07-08T07:12:30;2.60;;;2.40;;
38037;SDS011;23843;51.320;12.340;2023-07-08T07:14:56;2.22;;;2.13;;
38037;SDS011;23843;51.320;12.340;2023-07-08T07:17:22;2.75;;;2.55;;
38037;SDS011;23843;51.320;12.340;2023-07-08T07:19:49;2.30;;;2.20;;
38037;SDS011;23843;51.320;12.340;2023-07-08T07:22:16;2.45;;;2.35;;
38037;SDS011;23843;51.320;12.340;2023-07-08T07:24:42;2.80;;;2.60;;
38037;SDS011;23843;51.320;12.340;2023-07-08T07:27:08;3.15;;;2.95;;
38037;SDS011;23843;51.320;12.340;2023-07-08T07:29:39;3.08;;;2.80;;
38037;SDS011;23843;51.320;12.340;2023-07-08T07:32:10;2.97;;;2.78;;
38037;SDS011;23843;51.320;12.340;2023-07-08T07:34:36;3.60;;;3.30;;
38037;SDS011;23843;51.320;12.340;2023-07-08T07:37:02;2.92;;;2.72;;
38037;SDS011;23843;51.320;12.340;2023-07-08T07:39:30;2.92;;;2.72;;
38037;SDS011;23843;51.320;12.340;2023-07-08T07:41:56;3.25;;;3.05;;
38037;SDS011;23843;51.320;12.340;2023-07-08T07:44:21;2.92;;;2.72;;
38037;SDS011;23843;51.320;12.340;2023-07-08T07:46:47;3.10;;;2.88;;
38037;SDS011;23843;51.320;12.340;2023-07-08T07:49:13;2.72;;;2.60;;
38037;SDS011;23843;51.320;12.340;2023-07-08T07:51:39;3.05;;;2.85;;
38037;SDS011;23843;51.320;12.340;2023-07-08T07:54:05;2.80;;;2.60;;
38037;SDS011;23843;51.320;12.340;2023-07-08T07:56:32;3.08;;;2.88;;
38037;SDS011;23843;51.320;12.340;2023-07-08T07:58:57;3.10;;;2.90;;
38037;SDS011;23843;51.320;12.340;2023-07-08T08:01:23;3.40;;;3.20;;
38037;SDS011;23843;51.320;12.340;2023-07-08T08:03:48;3.05;;;2.85;;
38037;SDS011;23843;51.320;12.340;2023-07-08T08:06:14;2.95;;;2.75;;
38037;SDS011;23843;51.320;12.340;2023-07-08T08:08:39;2.50;;;2.40;;
38037;SDS011;23843;51.320;12.340;2023-07-08T08:11:05;2.30;;;2.20;;
38037;SDS011;23843;51.320;12.340;2023-07-08T08:13:31;2.20;;;2.10;;
38037;SDS011;23843;51.320;12.340;2023-07-08T08:15:57;2.20;;;2.10;;
38037;SDS011;23843;51.320;12.340;2023-07-08T08:18:24;2.38;;;2.17;;
38037;SDS011;23843;51.320;12.340;2023-07-08T08:20:49;2.80;;;2.60;;
38037;SDS011;23843;51.320;12.340;2023-07-08T08:23:15;2.40;;;2.20;;
38037;SDS011;23843;51.320;12.340;2023-07-08T08:25:41;2.70;;;2.50;;
38037;SDS011;23843;51.320;12.340;2023-07-08T08:28:06;2.40;;;2.20;;
38037;SDS011;23843;51.320;12.340;2023-07-08T08:30:36;1.98;;;1.88;;
38037;SDS011;23843;51.320;12.340;2023-07-08T08:33:01;2.75;;;2.47;;
38037;SDS011;23843;51.320;12.340;2023-07-08T08:35:27;2.22;;;2.10;;
38037;SDS011;23843;51.320;12.340;2023-07-08T08:37:52;2.22;;;2.03;;
38037;SDS011;23843;51.320;12.340;2023-07-08T08:40:18;2.65;;;2.45;;
38037;SDS011;23843;51.320;12.340;2023-07-08T08:42:45;2.40;;;2.30;;
38037;SDS011;23843;51.320;12.340;2023-07-08T08:45:17;3.78;;;3.58;;
38037;SDS011;23843;51.320;12.340;2023-07-08T08:47:49;3.25;;;3.05;;
38037;SDS011;23843;51.320;12.340;2023-07-08T08:50:24;2.65;;;2.53;;
38037;SDS011;23843;51.320;12.340;2023-07-08T08:52:56;3.22;;;3.03;;
38037;SDS011;23843;51.320;12.340;2023-07-08T08:55:24;3.38;;;3.08;;
38037;SDS011;23843;51.320;12.340;2023-07-08T08:57:53;3.20;;;3.00;;
38037;SDS011;23843;51.320;12.340;2023-07-08T09:00:29;4.00;;;3.80;;
38037;SDS011;23843;51.320;12.340;2023-07-08T09:03:07;4.50;;;4.20;;
38037;SDS011;23843;51.320;12.340;2023-07-08T09:05:36;4.75;;;4.45;;
38037;SDS011;23843;51.320;12.340;2023-07-08T09:08:04;5.38;;;5.07;;
38037;SDS011;23843;51.320;12.340;2023-07-08T09:10:40;6.07;;;5.70;;
38037;SDS011;23843;51.320;12.340;2023-07-08T09:13:11;5.60;;;5.30;;
38037;SDS011;23843;51.320;12.340;2023-07-08T09:15:43;4.80;;;4.60;;
38037;SDS011;23843;51.320;12.340;2023-07-08T09:18:13;5.25;;;4.95;;
38037;SDS011;23843;51.320;12.340;2023-07-08T09:20:44;4.85;;;4.55;;
38037;SDS011;23843;51.320;12.340;2023-07-08T09:23:10;5.20;;;4.90;;
38037;SDS011;23843;51.320;12.340;2023-07-08T09:25:45;5.28;;;4.90;;
38037;SDS011;23843;51.320;12.340;2023-07-08T09:28:17;4.38;;;4.07;;
38037;SDS011;23843;51.320;12.340;2023-07-08T09:30:45;3.97;;;3.78;;
38037;SDS011;23843;51.320;12.340;2023-07-08T09:33:17;3.40;;;3.20;;
38037;SDS011;23843;51.320;12.340;2023-07-08T09:35:43;4.40;;;4.10;;
38037;SDS011;23843;51.320;12.340;2023-07-08T09:38:13;3.53;;;3.33;;
38037;SDS011;23843;51.320;12.340;2023-07-08T09:40:43;3.50;;;3.30;;
38037;SDS011;23843;51.320;12.340;2023-07-08T09:43:15;2.88;;;2.67;;
38037;SDS011;23843;51.320;12.340;2023-07-08T09:46:11;2.33;;;2.22;;
38037;SDS011;23843;51.320;12.340;2023-07-08T09:56:08;3.17;;;2.97;;
38037;SDS011;23843;51.320;12.340;2023-07-08T09:58:35;2.80;;;2.60;;
38037;SDS011;23843;51.320;12.340;2023-07-08T10:01:08;2.40;;;2.20;;
38037;SDS011;23843;51.320;12.340;2023-07-08T10:03:35;2.10;;;2.00;;
38037;SDS011;23843;51.320;12.340;2023-07-08T10:06:04;3.20;;;3.00;;
38037;SDS011;23843;51.320;12.340;2023-07-08T10:08:39;2.63;;;2.42;;
38037;SDS011;23843;51.320;12.340;2023-07-08T10:11:10;2.08;;;1.98;;
38037;SDS011;23843;51.320;12.340;2023-07-08T10:13:50;1.75;;;1.65;;
38037;SDS011;23843;51.320;12.340;2023-07-08T10:16:21;1.70;;;1.60;;
38037;SDS011;23843;51.320;12.340;2023-07-08T10:18:49;1.90;;;1.80;;
38037;SDS011;23843;51.320;12.340;2023-07-08T10:21:20;2.20;;;2.00;;
38037;SDS011;23843;51.320;12.340;2023-07-08T10:23:58;2.35;;;2.15;;
38037;SDS011;23843;51.320;12.340;2023-07-08T10:26:33;2.30;;;2.10;;
38037;SDS011;23843;51.320;12.340;2023-07-08T10:29:04;1.98;;;1.70;;
38037;SDS011;23843;51.320;12.340;2023-07-08T10:31:45;1.73;;;1.63;;
38037;SDS011;23843;51.320;12.340;2023-07-08T10:37:08;3.28;;;2.97;;
38037;SDS011;23843;51.320;12.340;2023-07-08T10:39:49;2.17;;;1.98;;
38037;SDS011;23843;51.320;12.340;2023-07-08T10:42:40;3.13;;;2.42;;
38037;SDS011;23843;51.320;12.340;2023-07-08T10:45:17;2.42;;;2.22;;
38037;SDS011;23843;51.320;12.340;2023-07-08T10:47:53;2.47;;;2.30;;
38037;SDS011;23843;51.320;12.340;2023-07-08T10:50:39;2.80;;;2.60;;
38037;SDS011;23843;51.320;12.340;2023-07-08T10:53:26;2.33;;;2.13;;
38037;SDS011;23843;51.320;12.340;2023-07-08T10:56:03;3.53;;;3.22;;
38037;SDS011;23843;51.320;12.340;2023-07-08T10:58:44;3.42;;;3.13;;
38037;SDS011;23843;51.320;12.340;2023-07-08T11:01:28;2.92;;;2.70;;
38037;SDS011;23843;51.320;12.340;2023-07-08T11:04:07;2.47;;;2.28;;
38037;SDS011;23843;51.320;12.340;2023-07-08T11:06:53;1.50;;;1.40;;
38037;SDS011;23843;51.320;12.340;2023-07-08T11:09:24;2.40;;;2.20;;
38037;SDS011;23843;51.320;12.340;2023-07-08T11:11:56;1.80;;;1.65;;
38037;SDS011;23843;51.320;12.340;2023-07-08T11:14:27;2.78;;;2.58;;
38037;SDS011;23843;51.320;12.340;2023-07-08T11:17:09;2.03;;;1.90;;
38037;SDS011;23843;51.320;12.340;2023-07-08T11:19:40;1.80;;;1.70;;
38037;SDS011;23843;51.320;12.340;2023-07-08T11:22:11;1.67;;;1.58;;
38037;SDS011;23843;51.320;12.340;2023-07-08T11:24:42;2.47;;;2.28;;
38037;SDS011;23843;51.320;12.340;2023-07-08T11:27:11;2.53;;;2.30;;
38037;SDS011;23843;51.320;12.340;2023-07-08T11:29:42;2.40;;;2.20;;
38037;SDS011;23843;51.320;12.340;2023-07-08T11:32:14;1.92;;;1.80;;
38037;SDS011;23843;51.320;12.340;2023-07-08T11:34:42;1.30;;;1.20;;
38037;SDS011;23843;51.320;12.340;2023-07-08T11:37:11;2.33;;;2.13;;
38037;SDS011;23843;51.320;12.340;2023-07-08T11:39:39;2.20;;;2.00;;
38037;SDS011;23843;51.320;12.340;2023-07-08T11:42:18;1.80;;;1.70;;
38037;SDS011;23843;51.320;12.340;2023-07-08T11:44:47;1.55;;;1.45;;
38037;SDS011;23843;51.320;12.340;2023-07-08T11:47:17;1.05;;;1.00;;
38037;SDS011;23843;51.320;12.340;2023-07-08T11:49:45;0.80;;;0.80;;
38037;SDS011;23843;51.320;12.340;2023-07-08T11:52:14;0.90;;;0.90;;
38037;SDS011;23843;51.320;12.340;2023-07-08T11:54:46;0.85;;;0.85;;
38037;SDS011;23843;51.320;12.340;2023-07-08T11:57:16;1.00;;;0.85;;
38037;SDS011;23843;51.320;12.340;2023-07-08T11:59:43;1.30;;;1.20;;
38037;SDS011;23843;51.320;12.340;2023-07-08T12:02:12;1.20;;;1.10;;
38037;SDS011;23843;51.320;12.340;2023-07-08T12:04:52;0.98;;;0.90;;
38037;SDS011;23843;51.320;12.340;2023-07-08T12:07:29;1.45;;;1.20;;
38037;SDS011;23843;51.320;12.340;2023-07-08T12:09:58;1.73;;;1.10;;
38037;SDS011;23843;51.320;12.340;2023-07-08T12:12:30;1.30;;;1.20;;
38037;SDS011;23843;51.320;12.340;2023-07-08T12:15:00;1.20;;;1.10;;
38037;SDS011;23843;51.320;12.340;2023-07-08T12:17:33;1.00;;;1.00;;
38037;SDS011;23843;51.320;12.340;2023-07-08T12:20:00;1.00;;;0.90;;
38037;SDS011;23843;51.320;12.340;2023-07-08T12:22:26;1.98;;;1.77;;
38037;SDS011;23843;51.320;12.340;2023-07-08T12:24:55;1.98;;;1.88;;
38037;SDS011;23843;51.320;12.340;2023-07-08T12:27:23;3.13;;;2.40;;
38037;SDS011;23843;51.320;12.340;2023-07-08T12:29:49;2.35;;;2.15;;
38037;SDS011;23843;51.320;12.340;2023-07-08T12:32:14;2.00;;;1.90;;
38037;SDS011;23843;51.320;12.340;2023-07-08T12:34:41;2.17;;;1.98;;
38037;SDS011;23843;51.320;12.340;2023-07-08T12:37:09;2.92;;;2.15;;
38037;SDS011;23843;51.320;12.340;2023-07-08T12:39:37;2.38;;;2.00;;
38037;SDS011;23843;51.320;12.340;2023-07-08T12:42:04;1.90;;;1.80;;
38037;SDS011;23843;51.320;12.340;2023-07-08T12:44:36;1.40;;;1.30;;
38037;SDS011;23843;51.320;12.340;2023-07-08T12:47:04;1.58;;;1.48;;
38037;SDS011;23843;51.320;12.340;2023-07-08T12:49:32;1.45;;;1.35;;
38037;SDS011;23843;51.320;12.340;2023-07-08T12:51:58;1.27;;;1.17;;
38037;SDS011;23843;51.320;12.340;2023-07-08T12:54:23;1.08;;;0.98;;
38037;SDS011;23843;51.320;12.340;2023-07-08T12:56:49;0.80;;;0.80;;
38037;SDS011;23843;51.320;12.340;2023-07-08T12:59:17;2.72;;;2.53;;
38037;SDS011;23843;51.320;12.340;2023-07-08T13:01:46;5.03;;;2.30;;
38037;SDS011;23843;51.320;12.340;2023-07-08T13:04:14;2.20;;;1.75;;
38037;SDS011;23843;51.320;12.340;2023-07-08T13:06:42;1.75;;;1.65;;
38037;SDS011;23843;51.320;12.340;2023-07-08T13:09:14;1.65;;;1.50;;
38037;SDS011;23843;51.320;12.340;2023-07-08T13:11:48;1.70;;;1.60;;
38037;SDS011;23843;51.320;12.340;2023-07-08T13:14:16;1.30;;;1.20;;
38037;SDS011;23843;51.320;12.340;2023-07-08T13:16:42;1.80;;;1.70;;
38037;SDS011;23843;51.320;12.340;2023-07-08T13:19:09;1.17;;;1.08;;
38037;SDS011;23843;51.320;12.340;2023-07-08T13:21:37;0.90;;;0.90;;
38037;SDS011;23843;51.320;12.340;2023-07-08T13:24:06;1.02;;;0.80;;
38037;SDS011;23843;51.320;12.340;2023-07-08T13:26:33;1.50;;;1.40;;
38037;SDS011;23843;51.320;12.340;2023-07-08T13:29:01;1.60;;;1.50;;
38037;SDS011;23843;51.320;12.340;2023-07-08T13:31:33;1.30;;;1.20;;
38037;SDS011;23843;51.320;12.340;2023-07-08T13:34:05;2.10;;;1.90;;
38037;SDS011;23843;51.320;12.340;2023-07-08T13:36:35;2.00;;;1.80;;
38037;SDS011;23843;51.320;12.340;2023-07-08T13:39:04;1.50;;;1.40;;
38037;SDS011;23843;51.320;12.340;2023-07-08T13:41:32;1.20;;;1.10;;
38037;SDS011;23843;51.320;12.340;2023-07-08T13:44:03;1.05;;;1.02;;
38037;SDS011;23843;51.320;12.340;2023-07-08T13:46:30;1.08;;;1.00;;
38037;SDS011;23843;51.320;12.340;2023-07-08T13:49:00;0.80;;;0.80;;
38037;SDS011;23843;51.320;12.340;2023-07-08T13:51:28;1.00;;;1.00;;
38037;SDS011;23843;51.320;12.340;2023-07-08T13:53:59;0.68;;;0.68;;
38037;SDS011;23843;51.320;12.340;2023-07-08T13:56:28;0.80;;;0.80;;
38037;SDS011;23843;51.320;12.340;2023-07-08T13:59:00;2.35;;;1.90;;
38037;SDS011;23843;51.320;12.340;2023-07-08T14:01:27;1.50;;;1.40;;
38037;SDS011;23843;51.320;12.340;2023-07-08T14:03:55;1.63;;;1.52;;
38037;SDS011;23843;51.320;12.340;2023-07-08T14:06:22;1.95;;;1.85;;
38037;SDS011;23843;51.320;12.340;2023-07-08T14:08:50;2.63;;;2.42;;
38037;SDS011;23843;51.320;12.340;2023-07-08T14:11:33;2.35;;;2.10;;
38037;SDS011;23843;51.320;12.340;2023-07-08T14:13:58;2.95;;;1.80;;
38037;SDS011;23843;51.320;12.340;2023-07-08T14:16:24;1.65;;;1.55;;
38037;SDS011;23843;51.320;12.340;2023-07-08T14:18:52;2.08;;;1.88;;
38037;SDS011;23843;51.320;12.340;2023-07-08T14:21:18;1.98;;;1.77;;
38037;SDS011;23843;51.320;12.340;2023-07-08T14:23:44;1.60;;;1.50;;
38037;SDS011;23843;51.320;12.340;2023-07-08T14:26:10;1.30;;;1.20;;
38037;SDS011;23843;51.320;12.340;2023-07-08T14:28:37;0.93;;;0.93;;
38037;SDS011;23843;51.320;12.340;2023-07-08T14:31:04;0.82;;;0.82;;
38037;SDS011;23843;51.320;12.340;2023-07-08T14:33:34;0.77;;;0.77;;
38037;SDS011;23843;51.320;12.340;2023-07-08T14:36:00;0.90;;;0.90;;
38037;SDS011;23843;51.320;12.340;2023-07-08T14:38:26;1.50;;;1.40;;
38037;SDS011;23843;51.320;12.340;2023-07-08T14:41:11;1.60;;;1.50;;
38037;SDS011;23843;51.320;12.340;2023-07-08T14:43:58;1.90;;;1.80;;
38037;SDS011;23843;51.320;12.340;2023-07-08T14:46:23;1.40;;;1.30;;
38037;SDS011;23843;51.320;12.340;2023-07-08T14:48:49;2.20;;;2.00;;
38037;SDS011;23843;51.320;12.340;2023-07-08T14:51:15;2.22;;;1.98;;